This is the latest recevied weather packets stored in our database for station/object LEBL. If no packets are shown the sender has not sent any weather packets the latest 1 day(s).
| Time | Temp. | Humidity | Pressure | Rain* | Wind** | Luminosity | Snow |
|---|---|---|---|---|---|---|---|
| 1778002204 | 18.89° C | 68% | 1010 hPa | - | 1.34 m/s, 200° | - | - |
| 1777996804 | 18.89° C | 68% | 1010 hPa | - | 3.13 m/s, 140° | - | - |
| 1777993204 | 18.89° C | 63% | 1010 hPa | - | 3.58 m/s, 140° | - | - |
| 1777992304 | 18.89° C | 63% | 1010 hPa | - | 3.58 m/s, 140° | - | - |
| 1777991404 | 17.78° C | 72% | 1011 hPa | - | 0.45 m/s, 140° | - | - |
| 1777990504 | 17.78° C | 72% | 1011 hPa | - | 0.45 m/s, 140° | - | - |
| 1777989604 | 18.89° C | 63% | 1011 hPa | - | 3.58 m/s, 160° | - | - |
| 1777988703 | 18.89° C | 63% | 1011 hPa | - | 3.58 m/s, 160° | - | - |
| 1777984204 | 18.89° C | 59% | 1011 hPa | - | 3.13 m/s, 130° | - | - |
| 1777983304 | 18.89° C | 59% | 1011 hPa | - | 3.13 m/s, 130° | - | - |
| 1777981503 | 20° C | 60% | 1011 hPa | - | 2.24 m/s, 130° | - | - |
| 1777980604 | 18.89° C | 63% | 1012 hPa | - | 2.24 m/s, 40° | - | - |
| 1777977903 | 17.78° C | 63% | 1012 hPa | - | 2.68 m/s, 330° | - | - |
| 1777976105 | 17.78° C | 67% | 1012 hPa | - | 3.58 m/s, 300° | - | - |
| 1777975205 | 17.22° C | 67% | 1011 hPa | - | 4.02 m/s, 360° | - | - |
| 1777974304 | 17.22° C | 67% | 1011 hPa | - | 4.02 m/s, 360° | - | - |
| 1777973404 | 17.22° C | 72% | 1012 hPa | - | 3.58 m/s, 330° | - | - |
| 1777972504 | 17.22° C | 72% | 1012 hPa | - | 3.58 m/s, 330° | - | - |
| 1777971605 | 16.11° C | 72% | 1012 hPa | - | 0.45 m/s, 320° | - | - |
| 1777968905 | 16.11° C | 77% | 1012 hPa | - | 5.36 m/s, 320° | - | - |
| 1777968004 | 15° C | 76% | 1011 hPa | - | 5.81 m/s, 330° | - | - |
| 1777966204 | 13.89° C | 82% | 1012 hPa | - | 5.36 m/s, 320° | - | - |
| 1777964404 | 12.78° C | 87% | 1012 hPa | - | 6.26 m/s, 320° | - | - |
| 1777963504 | 12.78° C | 87% | 1012 hPa | - | 6.26 m/s, 320° | - | - |
| 1777962604 | 12.22° C | 93% | 1012 hPa | - | 5.36 m/s, 330° | - | - |
* Rain since midnight (hover to see other rain measurements)
** Current wind speed in m/s (hover to see current wind gust speed)